createdAt,value
2022-11-04T05:02:42.963Z,8.25
2022-11-04T05:05:10.275Z,7.82
2022-11-04T05:07:36.827Z,8.68
2022-11-04T05:10:03.737Z,8.17
2022-11-04T05:12:50.174Z,7.22
2022-11-04T05:15:17.325Z,6.85
2022-11-04T05:17:43.868Z,7.05
2022-11-04T05:20:11.415Z,6.70
2022-11-04T05:22:38.171Z,5.97
2022-11-04T05:25:05.134Z,6.07
2022-11-04T05:27:31.652Z,6.38
2022-11-04T05:29:58.387Z,5.82
2022-11-04T05:32:24.872Z,6.68
2022-11-04T05:34:51.751Z,6.60
2022-11-04T05:37:18.498Z,7.03
2022-11-04T05:39:45.115Z,5.97
2022-11-04T05:42:11.588Z,6.20
2022-11-04T05:44:38.098Z,6.63
2022-11-04T05:47:04.650Z,5.77
2022-11-04T05:49:31.456Z,5.72
2022-11-04T05:51:57.946Z,6.03
2022-11-04T05:54:24.444Z,6.15
2022-11-04T05:56:50.902Z,5.78
2022-11-04T05:59:17.443Z,5.90
2022-11-04T06:01:44.299Z,6.28
2022-11-04T06:04:15.987Z,6.20
2022-11-04T06:06:42.934Z,5.95
2022-11-04T06:09:09.921Z,6.10
2022-11-04T06:11:37.768Z,6.00
2022-11-04T06:14:05.581Z,6.07
2022-11-04T06:16:32.060Z,6.40
2022-11-04T06:19:01.636Z,6.07
2022-11-04T06:21:33.603Z,6.40
2022-11-04T06:24:00.323Z,6.40
2022-11-04T06:26:28.603Z,6.43
2022-11-04T06:28:55.721Z,6.68
2022-11-04T06:31:22.592Z,5.80
2022-11-04T06:33:49.173Z,6.22
2022-11-04T06:36:16.986Z,6.20
2022-11-04T06:38:43.802Z,6.18
2022-11-04T06:41:15.788Z,5.53
2022-11-04T06:43:42.405Z,5.82
2022-11-04T06:46:27.345Z,5.93
2022-11-04T06:48:55.430Z,6.10
2022-11-04T06:51:21.971Z,5.80
2022-11-04T06:53:48.551Z,6.25
2022-11-04T06:56:15.347Z,5.88
2022-11-04T06:58:42.223Z,5.60
2022-11-04T07:01:15.938Z,6.10
2022-11-04T07:03:49.413Z,6.10
2022-11-04T07:06:15.928Z,5.93
2022-11-04T07:08:42.432Z,6.55
2022-11-04T07:11:08.944Z,5.78
2022-11-04T07:13:35.514Z,6.03
2022-11-04T07:16:05.800Z,5.90
2022-11-04T07:18:32.908Z,5.75
2022-11-04T07:20:59.684Z,6.15
2022-11-04T07:23:26.234Z,5.60
2022-11-04T07:25:54.357Z,5.17
2022-11-04T07:28:21.124Z,5.72
2022-11-04T07:30:47.604Z,5.90
2022-11-04T07:33:14.118Z,6.13
2022-11-04T07:35:40.688Z,6.30
2022-11-04T07:38:07.773Z,5.97
2022-11-04T07:40:34.668Z,5.40
2022-11-04T07:43:01.583Z,5.88
2022-11-04T07:45:28.219Z,5.15
2022-11-04T07:47:54.772Z,5.40
2022-11-04T07:50:21.317Z,5.70
2022-11-04T07:52:47.852Z,5.80
2022-11-04T07:55:18.475Z,6.60
2022-11-04T07:57:48.005Z,6.25
2022-11-04T08:00:16.969Z,5.47
2022-11-04T08:02:47.278Z,5.57
2022-11-04T08:05:14.558Z,5.25
2022-11-04T08:07:41.995Z,5.03
2022-11-04T08:10:10.100Z,4.90
2022-11-04T08:12:38.172Z,5.13
2022-11-04T08:15:05.343Z,4.77
2022-11-04T08:17:31.916Z,4.85
2022-11-04T08:19:58.377Z,4.68
2022-11-04T08:22:27.635Z,4.55
2022-11-04T08:24:58.410Z,4.05
2022-11-04T08:27:24.914Z,4.47
2022-11-04T08:29:51.568Z,4.30
2022-11-04T08:32:18.961Z,4.60
2022-11-04T08:34:45.512Z,4.60
2022-11-04T08:37:16.274Z,4.40
2022-11-04T08:39:43.584Z,4.40
2022-11-04T08:42:10.616Z,5.00
2022-11-04T08:44:39.475Z,3.95
2022-11-04T08:47:06.103Z,3.88
2022-11-04T08:49:32.626Z,4.25
2022-11-04T08:52:00.630Z,4.20
2022-11-04T08:54:27.593Z,4.40
2022-11-04T08:56:54.395Z,4.60
2022-11-04T08:59:21.283Z,4.18
2022-11-04T09:01:49.431Z,4.30
2022-11-04T09:04:16.686Z,4.40
2022-11-04T09:06:46.008Z,4.93
2022-11-04T09:09:15.406Z,4.43
2022-11-04T09:11:43.724Z,4.88
2022-11-04T09:14:11.131Z,4.50
2022-11-04T09:16:40.365Z,4.10
2022-11-04T09:19:07.407Z,4.95
2022-11-04T09:21:34.149Z,4.47
2022-11-04T09:24:00.677Z,5.07
2022-11-04T09:26:27.406Z,4.70
2022-11-04T09:28:58.351Z,5.60
2022-11-04T09:31:26.808Z,5.70
2022-11-04T09:33:55.093Z,7.15
2022-11-04T09:36:22.323Z,6.55
2022-11-04T09:38:49.333Z,7.55
2022-11-04T09:41:42.299Z,7.30
2022-11-04T09:44:53.376Z,7.20
2022-11-04T09:47:23.150Z,6.60
2022-11-04T09:49:53.271Z,6.25
2022-11-04T09:52:26.139Z,6.85
2022-11-04T09:54:58.474Z,7.00
2022-11-04T09:57:25.512Z,6.80
2022-11-04T09:59:52.872Z,7.40
2022-11-04T10:02:46.972Z,7.32
2022-11-04T10:05:32.100Z,7.78
2022-11-04T10:08:16.761Z,7.30
2022-11-04T10:10:46.387Z,7.40
2022-11-04T10:13:41.888Z,14.25
2022-11-04T10:16:15.580Z,8.20
2022-11-04T10:19:12.058Z,8.35
2022-11-04T10:22:04.180Z,7.57
2022-11-04T10:24:33.620Z,7.75
2022-11-04T10:27:14.862Z,8.32
2022-11-04T10:29:48.608Z,8.82
2022-11-04T10:32:22.655Z,8.70
2022-11-04T10:35:38.934Z,8.20
2022-11-04T10:38:31.033Z,7.97
2022-11-04T10:41:00.508Z,8.30
2022-11-04T10:43:37.169Z,7.95
2022-11-04T10:46:15.599Z,8.73
2022-11-04T10:49:04.140Z,9.03
2022-11-04T10:51:30.837Z,7.78
2022-11-04T10:53:59.801Z,8.43
2022-11-04T10:56:40.480Z,8.23
2022-11-04T10:59:25.691Z,7.80
2022-11-04T11:01:57.736Z,7.87
2022-11-04T11:04:28.296Z,7.60
2022-11-04T11:06:57.147Z,6.97
2022-11-04T11:09:30.590Z,6.50
2022-11-04T11:12:44.241Z,7.13
2022-11-04T11:14:59.654Z,6.37
2022-11-04T11:17:35.356Z,6.40
2022-11-04T11:20:18.853Z,6.18
2022-11-04T11:22:48.141Z,6.30
2022-11-04T11:25:29.802Z,6.82
2022-11-04T11:28:08.879Z,6.60
2022-11-04T11:30:44.496Z,5.75
2022-11-04T11:33:18.833Z,6.15
2022-11-04T11:36:02.599Z,5.65
2022-11-04T11:38:31.805Z,4.85
2022-11-04T11:41:24.536Z,4.40
2022-11-04T11:43:53.195Z,4.93
2022-11-04T11:46:32.882Z,4.93
2022-11-04T11:49:01.649Z,5.82
2022-11-04T11:51:35.355Z,5.55
2022-11-04T11:54:22.738Z,5.60
2022-11-04T11:57:24.918Z,5.72
2022-11-04T12:02:59.679Z,6.05
2022-11-04T12:06:18.089Z,4.40
2022-11-04T12:12:23.081Z,4.32
2022-11-04T12:14:56.447Z,3.78
2022-11-04T12:17:28.880Z,4.63
2022-11-04T12:20:19.467Z,4.03
2022-11-04T12:23:07.709Z,5.00
2022-11-04T12:26:01.738Z,5.13
2022-11-04T12:28:31.307Z,5.55
2022-11-04T12:31:29.063Z,4.63
2022-11-04T12:34:13.882Z,4.75
2022-11-04T12:36:44.305Z,4.57
2022-11-04T12:39:43.606Z,4.43
2022-11-04T12:42:21.029Z,4.10
2022-11-04T12:45:04.764Z,4.63
2022-11-04T12:47:44.733Z,5.10
2022-11-04T12:50:22.994Z,5.90
2022-11-04T12:53:19.131Z,5.57
2022-11-04T12:55:52.463Z,5.82
2022-11-04T12:58:43.909Z,5.93
2022-11-04T13:01:18.332Z,9.68
2022-11-04T13:04:01.539Z,4.27
2022-11-04T13:06:37.918Z,2.10
2022-11-04T13:09:14.558Z,2.08
2022-11-04T13:11:47.908Z,1.90
2022-11-04T13:14:29.553Z,2.58
2022-11-04T13:17:05.227Z,1.70
2022-11-04T13:19:47.702Z,1.30
2022-11-04T13:22:20.959Z,1.90
2022-11-04T13:24:56.714Z,1.25
2022-11-04T13:27:26.786Z,1.50
2022-11-04T13:30:07.325Z,1.10
2022-11-04T13:32:41.919Z,0.77
2022-11-04T13:35:44.254Z,0.75
2022-11-04T13:38:15.502Z,1.00
2022-11-04T13:40:57.342Z,2.50
2022-11-04T13:43:39.307Z,0.90
2022-11-04T13:46:18.931Z,1.70
2022-11-04T13:48:59.511Z,2.10
2022-11-04T13:51:47.238Z,0.68
2022-11-04T13:54:25.129Z,0.85
2022-11-04T13:57:08.238Z,0.68
2022-11-04T13:59:35.486Z,1.80
2022-11-04T14:02:11.471Z,0.70
2022-11-04T14:04:40.904Z,2.65
2022-11-04T14:07:14.684Z,0.98
2022-11-04T14:09:44.252Z,0.55
2022-11-04T14:12:17.124Z,0.90
2022-11-04T14:14:47.950Z,1.23
2022-11-04T14:17:32.989Z,1.50
2022-11-04T14:20:06.079Z,1.20
2022-11-04T14:22:37.341Z,1.00
2022-11-04T14:25:27.275Z,1.13
2022-11-04T14:27:57.561Z,1.17
2022-11-04T14:30:28.781Z,1.20
